Time;durP1;ratioP1;P1;durP2;ratioP2;P2;SDS_P1;SDS_P2;PMS_P1;PMS_P2;Temp;Humidity;BMP_temperature;BMP_pressure;BME280_temperature;BME280_humidity;BME280_pressure;Samples;Min_cycle;Max_cycle;Signal;HPM_P1;HPM_P2
2020/12/08 00:00:18;;;;;;;12.90;6.18;;;;;;;3.16;71.86;98403.50;3874249;23;20047;-80
2020/12/08 00:01:50;;;;;;;12.48;6.90;;;;;;;3.06;72.10;98411.38;3855689;22;20005;-80
2020/12/08 00:03:22;;;;;;;10.32;5.07;;;;;;;3.06;72.37;98406.97;3855523;23;20016;-80
2020/12/08 00:04:54;;;;;;;11.07;6.28;;;;;;;3.08;72.05;98402.34;3868082;23;20012;-81
2020/12/08 00:06:32;;;;;;;11.07;7.00;;;;;;;3.01;72.33;98410.97;3874001;23;20016;-80
2020/12/08 00:08:08;;;;;;;12.05;7.40;;;;;;;2.95;72.55;98405.25;3870285;22;20009;-80
2020/12/08 00:09:39;;;;;;;12.65;7.10;;;;;;;2.93;72.52;98401.91;3869750;22;20008;-81
2020/12/08 00:11:16;;;;;;;;;;;;;;;2.83;72.77;98406.38;3874379;23;20008;-80
2020/12/08 00:12:49;;;;;;;11.00;6.43;;;;;;;2.84;72.61;98407.19;3869577;22;19904;-81
2020/12/08 00:14:20;;;;;;;13.02;7.90;;;;;;;2.83;72.82;98398.44;3873790;23;20019;-80
2020/12/08 00:15:56;;;;;;;12.85;7.47;;;;;;;2.78;72.88;98393.56;3867351;22;20028;-80
2020/12/08 00:17:26;;;;;;;12.45;6.78;;;;;;;2.89;72.77;98404.97;3854766;23;20016;-81
2020/12/08 00:18:58;;;;;;;11.52;6.15;;;;;;;2.92;72.71;98397.63;3851848;23;22502;-81
2020/12/08 00:20:29;;;;;;;11.30;6.05;;;;;;;2.93;72.65;98396.63;3855129;23;20017;-79
2020/12/08 00:22:02;;;;;;;;;;;;;;;2.92;72.72;98397.63;3852197;22;20043;-81
2020/12/08 00:23:34;;;;;;;9.45;5.65;;;;;;;2.99;72.54;98399.72;3855101;23;19973;-80
2020/12/08 00:25:07;;;;;;;14.15;6.78;;;;;;;3.03;72.35;98395.81;3852100;23;20025;-81
2020/12/08 00:26:40;;;;;;;13.20;6.78;;;;;;;3.11;72.14;98409.19;3855496;23;20073;-80
2020/12/08 00:28:11;;;;;;;11.57;5.60;;;;;;;3.11;72.14;98393.34;3852804;22;20039;-83
2020/12/08 00:29:42;;;;;;;9.82;4.82;;;;;;;3.13;72.26;98386.09;3855505;23;20054;-80
2020/12/08 00:31:15;;;;;;;11.43;6.43;;;;;;;3.11;72.20;98388.06;3850997;23;20137;-81
2020/12/08 00:32:46;;;;;;;14.65;8.30;;;;;;;2.99;72.52;98383.88;3855181;23;20039;-80
2020/12/08 00:34:25;;;;;;;11.60;6.68;;;;;;;3.05;72.37;98399.16;3852591;23;20009;-80
2020/12/08 00:35:58;;;;;;;12.30;7.03;;;;;;;3.04;72.73;98386.91;3855513;23;20025;-81
2020/12/08 00:37:30;;;;;;;13.80;8.40;;;;;;;3.00;72.64;98386.38;3862515;23;20043;-81
2020/12/08 00:39:01;;;;;;;12.52;7.22;;;;;;;3.01;72.71;98390.69;3871954;23;20024;-82
2020/12/08 00:40:32;;;;;;;14.10;8.18;;;;;;;2.97;72.64;98389.31;3865761;22;20021;-83
2020/12/08 00:42:06;;;;;;;13.40;8.02;;;;;;;2.94;72.83;98376.38;3868797;23;20017;-82
2020/12/08 00:43:37;;;;;;;13.07;7.60;;;;;;;2.97;72.78;98387.47;3867453;22;20072;-82
2020/12/08 00:45:12;;;;;;;13.55;7.88;;;;;;;2.96;72.95;98383.16;3869831;23;20020;-81
2020/12/08 00:46:47;;;;;;;13.93;7.93;;;;;;;3.03;72.78;98379.97;3870643;22;20028;-81
2020/12/08 00:48:22;;;;;;;10.77;5.90;;;;;;;3.08;72.55;98383.88;3873045;23;20027;-81
2020/12/08 00:49:54;;;;;;;9.73;5.15;;;;;;;3.19;72.54;98384.72;3870908;22;20013;-81
2020/12/08 00:51:25;;;;;;;12.35;6.72;;;;;;;3.18;72.52;98386.53;3874066;23;20023;-80
2020/12/08 00:52:56;;;;;;;12.40;7.07;;;;;;;3.17;72.47;98391.94;3870148;22;20054;-81
2020/12/08 00:54:28;;;;;;;11.85;6.03;;;;;;;3.19;72.56;98390.84;3873130;23;20004;-81
2020/12/08 00:55:59;;;;;;;12.98;6.90;;;;;;;3.23;72.42;98397.50;3869731;22;20020;-81
2020/12/08 00:57:30;;;;;;;12.18;6.55;;;;;;;3.26;72.29;98401.66;3873530;23;20032;-80
2020/12/08 00:59:02;;;;;;;12.18;6.78;;;;;;;3.27;72.03;98388.34;3870400;22;20016;-81
2020/12/08 01:00:34;;;;;;;13.20;8.27;;;;;;;3.26;72.14;98391.94;3873808;23;20020;-81
2020/12/08 01:02:06;;;;;;;12.48;7.07;;;;;;;3.25;72.36;98387.63;3870884;22;20008;-83
2020/12/08 01:03:37;;;;;;;16.40;9.07;;;;;;;3.19;72.43;98390.00;3873521;23;20001;-81
2020/12/08 01:05:11;;;;;;;12.65;7.47;;;;;;;3.16;72.57;98387.66;3870723;23;20107;-81
2020/12/08 01:06:43;;;;;;;15.65;7.95;;;;;;;3.16;72.66;98391.13;3870131;22;20015;-81
2020/12/08 01:08:14;;;;;;;15.18;9.05;;;;;;;3.14;72.55;98392.22;3873904;23;20004;-80
2020/12/08 01:09:45;;;;;;;16.35;10.02;;;;;;;3.03;72.97;98394.03;3871569;22;20019;-80
2020/12/08 01:11:16;;;;;;;16.02;9.65;;;;;;;3.03;73.02;98396.66;3873185;23;20028;-80
2020/12/08 01:12:49;;;;;;;14.50;8.13;;;;;;;3.11;72.95;98398.63;3869012;22;20051;-81
2020/12/08 01:14:20;;;;;;;15.25;8.50;;;;;;;3.16;72.93;98385.84;3873514;23;20009;-81
2020/12/08 01:15:51;;;;;;;11.32;6.07;;;;;;;3.21;72.68;98394.16;3870338;22;20042;-81
2020/12/08 01:17:23;;;;;;;15.70;8.00;;;;;;;3.21;72.66;98388.88;3873550;23;20024;-81
2020/12/08 01:18:55;;;;;;;15.88;9.30;;;;;;;3.16;72.61;98391.13;3868647;23;20039;-81
2020/12/08 01:20:29;;;;;;;15.93;9.35;;;;;;;3.16;72.98;98385.00;3873714;23;20338;-80
2020/12/08 01:22:01;;;;;;;14.73;7.82;;;;;;;3.15;72.96;98397.38;3870037;22;20071;-80
2020/12/08 01:23:32;;;;;;;14.55;7.82;;;;;;;3.21;73.14;98404.72;3873070;23;20019;-81
2020/12/08 01:25:05;;;;;;;15.48;8.85;;;;;;;3.20;72.69;98392.50;3869574;22;20020;-80
2020/12/08 01:26:36;;;;;;;15.70;8.70;;;;;;;3.17;72.94;98387.50;3872685;23;20069;-80
2020/12/08 01:28:07;;;;;;;15.13;7.72;;;;;;;3.20;72.92;98389.03;3869632;22;20019;-81
2020/12/08 01:29:39;;;;;;;14.13;7.38;;;;;;;3.25;72.91;98400.84;3871870;23;20016;-80
2020/12/08 01:31:09;;;;;;;14.40;7.22;;;;;;;3.32;72.78;98401.13;3869906;22;20043;-82
2020/12/08 01:32:42;;;;;;;13.50;6.97;;;;;;;3.37;72.56;98408.66;3872907;23;20008;-81
2020/12/08 01:34:13;;;;;;;17.30;8.95;;;;;;;3.41;72.53;98420.59;3870229;22;20048;-82
2020/12/08 01:35:45;;;;;;;13.80;7.10;;;;;;;3.38;72.29;98399.75;3873377;23;20001;-81
2020/12/08 01:37:16;;;;;;;13.40;7.43;;;;;;;3.41;72.43;98399.44;3869380;22;20028;-81
2020/12/08 01:38:48;;;;;;;16.00;8.32;;;;;;;3.41;72.33;98399.44;3873048;23;20017;-82
2020/12/08 01:40:19;;;;;;;17.52;10.02;;;;;;;3.38;72.42;98391.81;3870388;22;20020;-81
2020/12/08 01:41:55;;;;;;;17.83;10.38;;;;;;;3.31;72.55;98393.34;3873523;23;20061;-81
2020/12/08 01:43:28;;;;;;;15.48;8.48;;;;;;;3.32;72.73;98387.94;3869818;22;20020;-81
2020/12/08 01:44:59;;;;;;;17.85;10.30;;;;;;;3.31;72.86;98402.09;3873704;23;20016;-81
2020/12/08 01:46:33;;;;;;;13.98;7.85;;;;;;;3.35;72.72;98402.66;3869612;22;20020;-81
2020/12/08 01:48:05;;;;;;;17.77;11.00;;;;;;;3.31;72.63;98393.34;3872604;23;20019;-81
2020/12/08 01:49:36;;;;;;;16.75;9.15;;;;;;;3.34;72.86;98398.34;3870089;23;20020;-81
2020/12/08 01:51:09;;;;;;;16.42;8.80;;;;;;;3.37;72.54;98390.16;3872491;23;20039;-82
2020/12/08 01:52:42;;;;;;;15.73;9.45;;;;;;;3.32;72.58;98381.78;3870831;22;20035;-82
2020/12/08 01:54:18;;;;;;;19.23;10.15;;;;;;;3.29;72.62;98380.28;3872700;23;20069;-82
2020/12/08 01:55:53;;;;;;;18.40;10.40;;;;;;;3.31;72.81;98377.50;3868299;22;20009;-82
2020/12/08 01:57:25;;;;;;;21.35;11.40;;;;;;;3.22;72.83;98381.81;3873501;23;20005;-82
2020/12/08 01:59:00;;;;;;;18.05;10.93;;;;;;;3.17;72.97;98370.81;3868368;22;20055;-81
2020/12/08 02:00:31;;;;;;;15.98;8.75;;;;;;;3.30;72.97;98389.03;3873584;23;20717;-81
2020/12/08 02:02:03;;;;;;;14.45;8.07;;;;;;;3.31;72.71;98383.63;3869179;22;20015;-80
2020/12/08 02:03:36;;;;;;;20.23;9.93;;;;;;;3.32;72.53;98384.44;3873992;23;20012;-81
2020/12/08 02:05:16;;;;;;;13.07;7.95;;;;;;;3.38;72.38;98394.47;3870262;22;20013;-81
2020/12/08 02:06:47;;;;;;;12.90;7.15;;;;;;;3.48;72.61;98389.16;3869676;22;20009;-81
2020/12/08 02:08:27;;;;;;;12.63;6.63;;;;;;;3.51;72.16;98376.50;3873277;23;20031;-81
2020/12/08 02:10:00;;;;;;;12.25;6.88;;;;;;;3.55;72.07;98374.41;3870376;22;20009;-81
2020/12/08 02:11:39;;;;;;;15.90;8.40;;;;;;;3.56;72.00;98384.00;3873385;23;20012;-81
2020/12/08 02:13:10;;;;;;;15.38;9.18;;;;;;;3.50;72.28;98376.66;3868778;22;20012;-82
2020/12/08 02:14:42;;;;;;;12.57;6.80;;;;;;;3.56;72.22;98376.94;3873922;23;20009;-81
2020/12/08 02:16:13;;;;;;;15.73;8.80;;;;;;;3.53;72.24;98373.75;3870194;22;20016;-82
2020/12/08 02:17:46;;;;;;;17.30;10.13;;;;;;;3.52;72.34;98375.53;3873390;23;20028;-81
2020/12/08 02:19:18;;;;;;;18.08;9.73;;;;;;;3.59;72.13;98371.34;3869814;22;20012;-81
2020/12/08 02:20:59;;;;;;;14.65;8.25;;;;;;;3.63;71.80;98373.72;3873605;23;20020;-81
2020/12/08 02:22:30;;;;;;;15.98;8.95;;;;;;;3.50;72.40;98372.19;3870377;22;20023;-81
2020/12/08 02:24:03;;;;;;;14.88;8.13;;;;;;;3.54;72.05;98370.94;3873894;23;20012;-81
2020/12/08 02:25:35;;;;;;;15.55;8.98;;;;;;;3.56;71.89;98369.00;3863222;22;20019;-81
2020/12/08 02:27:07;;;;;;;15.30;8.65;;;;;;;3.51;72.09;98363.28;3872540;23;20027;-81
2020/12/08 02:28:38;;;;;;;18.08;9.63;;;;;;;3.52;72.15;98370.25;3871778;22;20068;-82
2020/12/08 02:30:10;;;;;;;22.48;11.18;;;;;;;3.51;72.15;98363.28;3873947;23;20043;-81
2020/12/08 02:31:41;;;;;;;18.20;10.10;;;;;;;3.52;72.01;98359.69;3871752;22;20031;-81
2020/12/08 02:33:13;;;;;;;16.17;8.80;;;;;;;3.51;72.00;98358.00;3874124;23;20040;-81
2020/12/08 02:34:43;;;;;;;19.63;10.82;;;;;;;3.47;72.08;98356.63;3870447;22;20009;-81
2020/12/08 02:36:16;;;;;;;17.63;10.50;;;;;;;3.40;72.15;98350.25;3874414;23;20035;-81
2020/12/08 02:37:47;;;;;;;20.80;12.10;;;;;;;3.36;72.15;98351.50;3871052;22;20009;-81
2020/12/08 02:39:19;;;;;;;21.58;12.98;;;;;;;3.32;72.44;98352.75;3874586;23;20005;-81
2020/12/08 02:40:50;;;;;;;20.55;10.88;;;;;;;3.23;72.44;98352.59;3871031;22;20055;-79
2020/12/08 02:42:22;;;;;;;21.25;12.80;;;;;;;3.25;72.66;98355.13;3874443;23;20017;-80
2020/12/08 02:43:53;;;;;;;18.80;9.82;;;;;;;3.28;72.43;98347.75;3871042;22;20012;-80
2020/12/08 02:45:28;;;;;;;17.60;10.20;;;;;;;3.38;72.23;98360.13;3872583;23;20035;-81
2020/12/08 02:46:59;;;;;;;18.85;10.90;;;;;;;3.40;72.29;98371.38;3870896;22;20020;-80
2020/12/08 02:48:38;;;;;;;15.65;8.98;;;;;;;3.40;71.95;98360.81;3873755;23;20020;-81
2020/12/08 02:50:09;;;;;;;14.45;8.18;;;;;;;3.41;72.22;98367.75;3872232;23;20008;-80
2020/12/08 02:51:42;;;;;;;17.33;9.55;;;;;;;3.40;72.12;98366.94;3870728;22;20012;-80
2020/12/08 02:53:14;;;;;;;18.25;9.90;;;;;;;3.40;72.24;98366.94;3874423;23;20019;-81
2020/12/08 02:54:46;;;;;;;18.10;10.15;;;;;;;3.43;71.99;98365.81;3871423;22;20008;-81
2020/12/08 02:56:23;;;;;;;21.15;12.95;;;;;;;3.25;72.04;98370.97;3873539;23;20088;-82
2020/12/08 02:57:57;;;;;;;20.13;11.55;;;;;;;3.21;72.34;98361.66;3871582;22;20012;-81
2020/12/08 02:59:30;;;;;;;19.52;11.32;;;;;;;3.25;72.43;98363.06;3873491;23;20032;-81
2020/12/08 03:01:02;;;;;;;21.52;12.40;;;;;;;3.21;72.40;98375.66;3871459;22;20005;-81
2020/12/08 03:02:37;;;;;;;16.45;9.20;;;;;;;3.23;72.28;98363.16;3874214;23;20072;-80
2020/12/08 03:04:09;;;;;;;19.35;11.45;;;;;;;3.25;72.44;98361.22;3870720;22;20015;-81
2020/12/08 03:05:40;;;;;;;16.00;9.05;;;;;;;3.37;72.21;98364.56;3874130;23;20084;-80
2020/12/08 03:07:12;;;;;;;16.42;9.88;;;;;;;3.39;72.06;98378.47;3869804;22;20083;-80
2020/12/08 03:08:43;;;;;;;17.77;10.25;;;;;;;3.35;72.04;98378.88;3874533;23;20013;-81
2020/12/08 03:10:18;;;;;;;16.73;10.02;;;;;;;3.38;71.64;98368.88;3870632;22;20001;-82
2020/12/08 03:11:49;;;;;;;19.30;9.85;;;;;;;3.32;72.07;98363.31;3874948;23;20016;-80
2020/12/08 03:13:20;;;;;;;15.85;8.45;;;;;;;3.37;72.03;98371.66;3868910;22;20032;-80
2020/12/08 03:14:52;;;;;;;16.80;8.80;;;;;;;3.45;71.80;98370.97;3874132;23;20013;-81
2020/12/08 03:16:23;;;;;;;17.08;8.75;;;;;;;3.46;71.79;98369.97;3869433;22;20035;-81
2020/12/08 03:17:55;;;;;;;18.15;10.55;;;;;;;3.46;71.79;98376.09;3873876;23;20072;-81
2020/12/08 03:19:26;;;;;;;17.50;9.68;;;;;;;3.45;71.78;98374.44;3870933;22;20025;-81
2020/12/08 03:20:58;;;;;;;;;;;;;;;3.31;71.91;98373.03;3874809;23;20040;-81
2020/12/08 03:22:30;;;;;;;18.05;10.38;;;;;;;3.38;71.90;98376.78;3870752;22;19915;-81
2020/12/08 03:24:02;;;;;;;15.60;9.27;;;;;;;3.38;71.93;98375.97;3873009;23;20025;-80
2020/12/08 03:25:33;;;;;;;18.75;10.00;;;;;;;3.32;71.87;98366.78;3869294;22;20005;-82
2020/12/08 03:27:05;;;;;;;16.70;9.77;;;;;;;3.33;71.96;98371.09;3874277;23;20032;-80
2020/12/08 03:28:36;;;;;;;18.27;10.25;;;;;;;3.31;71.72;98374.88;3869958;22;20082;-82
2020/12/08 03:30:07;;;;;;;16.98;10.40;;;;;;;3.27;72.03;98356.66;3873711;23;20001;-81
2020/12/08 03:31:38;;;;;;;16.98;9.85;;;;;;;3.27;72.01;98358.44;3868402;22;20030;-82
2020/12/08 03:33:09;;;;;;;;;;;;;;;3.24;72.18;98362.19;3874382;23;20013;-81
2020/12/08 03:34:41;;;;;;;15.70;9.25;;;;;;;3.28;72.03;98358.31;3870567;22;19914;-81
2020/12/08 03:36:13;;;;;;;16.75;8.55;;;;;;;3.35;71.82;98361.25;3873691;23;20016;-80
2020/12/08 03:37:45;;;;;;;18.30;11.70;;;;;;;3.27;71.99;98354.00;3871597;22;20024;-81
2020/12/08 03:39:17;;;;;;;17.92;10.57;;;;;;;3.27;71.92;98355.78;3873741;23;20024;-80
2020/12/08 03:40:49;;;;;;;17.65;9.45;;;;;;;3.32;71.95;98358.03;3871270;22;20017;-81
2020/12/08 03:42:21;;;;;;;20.38;11.68;;;;;;;3.30;71.89;98362.63;3873733;23;20065;-81
2020/12/08 03:43:52;;;;;;;16.45;9.95;;;;;;;3.31;71.99;98364.31;3870554;22;20004;-80
2020/12/08 03:45:25;;;;;;;18.23;9.30;;;;;;;3.35;71.88;98360.38;3873785;23;20008;-81
2020/12/08 03:46:58;;;;;;;17.17;8.05;;;;;;;3.35;71.80;98350.69;3870157;22;20013;-80
2020/12/08 03:48:30;;;;;;;16.65;8.98;;;;;;;3.39;71.75;98357.31;3873683;23;20008;-81
2020/12/08 03:50:03;;;;;;;16.05;8.13;;;;;;;3.44;71.55;98362.19;3869007;22;20005;-81
2020/12/08 03:51:35;;;;;;;17.58;10.20;;;;;;;3.32;71.88;98361.50;3873291;23;20004;-80
2020/12/08 03:53:07;;;;;;;17.63;9.60;;;;;;;3.43;71.70;98360.53;3870093;22;20013;-81
2020/12/08 03:54:44;;;;;;;18.10;10.75;;;;;;;3.34;71.73;98358.72;3871771;22;20017;-81
2020/12/08 03:56:16;;;;;;;17.75;9.57;;;;;;;3.43;71.80;98360.53;3872742;23;20023;-80
2020/12/08 03:57:48;;;;;;;14.52;8.15;;;;;;;3.44;71.60;98351.63;3869042;22;20008;-81
2020/12/08 03:59:19;;;;;;;15.57;8.57;;;;;;;3.47;71.56;98361.91;3874159;23;20020;-81
2020/12/08 04:00:50;;;;;;;17.65;10.13;;;;;;;3.52;71.56;98364.97;3870737;22;20066;-80
2020/12/08 04:02:21;;;;;;;20.80;10.38;;;;;;;3.49;71.46;98349.41;3873737;23;20005;-81
2020/12/08 04:03:53;;;;;;;17.17;9.38;;;;;;;3.49;71.59;98349.41;3870541;22;20032;-81
2020/12/08 04:05:24;;;;;;;17.13;10.02;;;;;;;3.52;71.43;98356.22;3873250;23;20012;-81
2020/12/08 04:06:55;;;;;;;17.67;9.43;;;;;;;3.52;71.38;98349.09;3870465;22;20033;-80
2020/12/08 04:08:29;;;;;;;18.05;10.18;;;;;;;3.49;71.27;98352.06;3872977;23;20036;-81
2020/12/08 04:10:04;;;;;;;19.77;10.93;;;;;;;3.39;71.44;98338.00;3870725;22;20242;-81
2020/12/08 04:11:35;;;;;;;19.60;12.20;;;;;;;3.33;71.96;98359.69;3873870;23;20064;-81
2020/12/08 04:13:06;;;;;;;17.85;9.88;;;;;;;3.41;71.85;98363.31;3869754;22;20008;-79
2020/12/08 04:14:45;;;;;;;14.80;7.80;;;;;;;3.43;71.47;98349.94;3873990;23;20309;-81
2020/12/08 04:16:16;;;;;;;20.35;11.13;;;;;;;3.40;71.77;98345.78;3870403;22;20035;-80
2020/12/08 04:17:47;;;;;;;19.27;11.20;;;;;;;3.40;71.79;98348.44;3874308;23;20038;-80
2020/12/08 04:19:18;;;;;;;17.65;10.35;;;;;;;3.43;71.75;98355.22;3838358;22;20049;-81
2020/12/08 04:20:50;;;;;;;;;;;;;;;3.33;71.92;98357.91;3838861;23;20013;-80
2020/12/08 04:22:22;;;;;;;16.27;9.02;;;;;;;3.40;71.79;98364.28;3851935;23;19919;-81
2020/12/08 04:23:59;;;;;;;16.80;9.05;;;;;;;3.45;71.56;98358.56;3855118;23;20005;-81
2020/12/08 04:25:33;;;;;;;18.35;9.63;;;;;;;3.48;71.61;98362.75;3850860;23;20061;-80
2020/12/08 04:27:11;;;;;;;19.38;10.45;;;;;;;3.46;71.31;98352.31;3854779;23;20033;-80
2020/12/08 04:28:43;;;;;;;17.30;9.55;;;;;;;3.50;71.51;98358.16;3860331;23;20043;-81
2020/12/08 04:30:15;;;;;;;15.57;9.13;;;;;;;3.45;71.41;98350.66;3872635;22;20031;-81
2020/12/08 04:31:46;;;;;;;19.23;10.88;;;;;;;3.48;71.45;98354.81;3870270;22;20016;-80
2020/12/08 04:33:20;;;;;;;16.63;9.82;;;;;;;3.41;71.32;98358.03;3873184;23;20001;-80
2020/12/08 04:34:51;;;;;;;21.10;11.45;;;;;;;3.41;71.71;98358.03;3870870;22;20004;-81
2020/12/08 04:36:24;;;;;;;18.02;10.23;;;;;;;3.35;71.71;98355.97;3873063;23;20036;-80
2020/12/08 04:37:55;;;;;;;21.20;11.18;;;;;;;3.33;71.96;98339.41;3870191;22;20032;-80
2020/12/08 04:39:27;;;;;;;;;;;;;;;3.11;72.30;98340.53;3873375;23;20051;-79
2020/12/08 04:40:59;;;;;;;21.80;12.55;;;;;;;3.09;72.51;98342.47;3869957;22;19915;-80
2020/12/08 04:42:30;;;;;;;23.40;12.77;;;;;;;3.06;72.72;98340.94;3872394;23;20056;-80
2020/12/08 04:44:05;;;;;;;18.55;10.68;;;;;;;3.12;72.48;98336.88;3869286;22;20029;-80
2020/12/08 04:45:36;;;;;;;16.90;9.40;;;;;;;3.16;72.36;98345.41;3871200;23;20190;-80
2020/12/08 04:47:21;;;;;;;19.83;11.18;;;;;;;3.11;72.35;98338.72;3869038;22;20079;-82
2020/12/08 04:49:04;;;;;;;18.58;10.38;;;;;;;3.05;72.41;98349.00;3864687;22;20000;-81
2020/12/08 04:50:45;;;;;;;16.25;8.93;;;;;;;3.14;72.56;98355.25;3872200;23;20046;-82
2020/12/08 04:52:20;;;;;;;16.98;7.85;;;;;;;3.14;72.51;98356.06;3855202;22;20012;-82
2020/12/08 04:54:09;;;;;;;18.83;9.88;;;;;;;3.12;72.33;98358.88;3889361;22;20554;-81
2020/12/08 04:55:48;;;;;;;18.42;9.75;;;;;;;3.11;72.22;98356.38;3812484;22;20402;-80
2020/12/08 04:57:18;;;;;;;23.00;12.95;;;;;;;3.13;72.39;98359.69;3850752;23;20012;-80
2020/12/08 04:58:49;;;;;;;;;;;;;;;2.98;72.79;98359.25;3864846;22;20025;-79
2020/12/08 05:00:20;;;;;;;17.77;8.88;;;;;;;3.09;72.51;98355.69;3860434;23;19919;-80
2020/12/08 05:01:52;;;;;;;17.20;9.05;;;;;;;3.17;72.29;98363.72;3856610;22;20094;-80
2020/12/08 05:03:29;;;;;;;18.50;10.30;;;;;;;3.12;72.26;98363.31;3859504;23;20027;-80
2020/12/08 05:05:23;;;;;;;24.23;14.10;;;;;;;3.04;72.20;98360.50;3855015;22;20032;-80
2020/12/08 05:07:04;;;;;;;23.58;12.85;;;;;;;3.02;72.52;98359.84;3855476;22;20029;-79
2020/12/08 05:08:35;;;;;;;23.55;12.68;;;;;;;2.92;72.71;98358.03;3859879;23;20093;-80
2020/12/08 05:10:06;;;;;;;18.50;10.88;;;;;;;2.92;72.88;98359.81;3856386;22;20016;-80
2020/12/08 05:11:39;;;;;;;19.80;11.05;;;;;;;2.95;72.75;98354.28;3860520;23;20024;-79
2020/12/08 05:13:17;;;;;;;20.60;10.80;;;;;;;2.94;72.79;98355.25;3856329;22;20024;-79
2020/12/08 05:14:48;;;;;;;19.50;9.52;;;;;;;3.00;72.75;98352.03;3860304;23;20024;-80
2020/12/08 05:16:20;;;;;;;;;;;;;;;2.88;73.00;98358.44;3855879;22;20103;-80
2020/12/08 05:17:51;;;;;;;18.77;9.15;;;;;;;2.97;72.71;98355.81;3859055;23;19915;-79
2020/12/08 05:19:22;;;;;;;20.38;10.48;;;;;;;3.00;72.72;98354.69;3857996;22;20664;-79
2020/12/08 05:20:53;;;;;;;;;;;;;;;2.91;72.62;98356.34;3860743;23;20020;-80
2020/12/08 05:22:24;;;;;;;14.65;7.88;;;;;;;2.97;72.82;98362.91;3857246;22;20296;-80
2020/12/08 05:23:55;;;;;;;;;;;;;;;2.91;72.76;98360.78;3857683;23;20017;-79
2020/12/08 05:25:28;;;;;;;14.13;7.30;;;;;;;3.00;72.48;98359.97;3857994;22;19920;-79
2020/12/08 05:27:02;;;;;;;17.60;9.75;;;;;;;2.96;72.56;98359.41;3858948;23;20031;-79
2020/12/08 05:28:34;;;;;;;22.42;12.95;;;;;;;2.87;72.91;98356.78;3863171;22;20013;-79
2020/12/08 05:30:06;;;;;;;22.98;12.93;;;;;;;2.79;72.99;98347.72;3872071;23;20008;-79
2020/12/08 05:31:38;;;;;;;25.58;14.70;;;;;;;2.72;73.26;98345.78;3859710;22;20020;-80
2020/12/08 05:33:14;;;;;;;24.35;13.10;;;;;;;2.62;73.68;98343.09;3859490;23;20044;-80
2020/12/08 05:34:47;;;;;;;23.08;13.38;;;;;;;2.62;73.78;98351.00;3856772;22;20032;-79
2020/12/08 05:36:19;;;;;;;24.30;13.82;;;;;;;2.59;73.92;98351.31;3858389;23;20028;-79
2020/12/08 05:37:52;;;;;;;25.92;14.65;;;;;;;2.55;74.18;98358.63;3855792;22;20025;-80
2020/12/08 05:39:23;;;;;;;27.67;14.38;;;;;;;2.57;73.88;98361.16;3858510;23;20310;-79
2020/12/08 05:40:55;;;;;;;21.00;11.93;;;;;;;2.60;73.89;98363.50;3861749;22;20040;-79
2020/12/08 05:42:42;;;;;;;22.30;11.23;;;;;;;2.62;73.70;98367.69;3870313;23;20017;-79
2020/12/08 05:44:22;;;;;;;20.58;11.35;;;;;;;2.69;73.50;98368.00;3868923;23;20017;-80
2020/12/08 05:45:55;;;;;;;21.38;11.18;;;;;;;2.77;73.49;98380.50;3865424;22;20055;-80
2020/12/08 05:47:31;;;;;;;16.05;8.52;;;;;;;2.85;73.17;98378.00;3869362;23;20024;-79
2020/12/08 05:49:02;;;;;;;16.25;8.20;;;;;;;2.91;73.25;98376.63;3866853;22;20031;-80
2020/12/08 05:50:34;;;;;;;19.35;9.80;;;;;;;2.89;73.16;98371.50;3869380;23;20023;-79
2020/12/08 05:52:05;;;;;;;18.48;10.20;;;;;;;2.87;73.25;98365.50;3867636;22;20021;-79
2020/12/08 05:53:36;;;;;;;;;;;;;;;2.73;73.33;98363.28;3864350;23;20036;-79
2020/12/08 05:55:08;;;;;;;20.63;10.45;;;;;;;2.77;73.52;98364.66;3863333;22;19915;-79
2020/12/08 05:56:40;;;;;;;20.73;11.45;;;;;;;2.75;73.52;98366.59;3866614;23;20064;-80
2020/12/08 05:58:12;;;;;;;25.83;14.95;;;;;;;2.68;73.58;98357.56;3864774;22;20112;-79
2020/12/08 05:59:53;;;;;;;23.98;13.20;;;;;;;2.58;73.60;98350.44;3869446;23;20024;-80
2020/12/08 06:01:25;;;;;;;;;;;;;;;2.40;74.21;98345.00;3866811;22;20205;-80
2020/12/08 06:03:09;;;;;;;24.15;13.77;;;;;;;2.40;74.10;98352.06;3868359;23;19919;-80
2020/12/08 06:04:40;;;;;;;24.40;13.23;;;;;;;2.42;74.41;98344.88;3855167;23;20047;-79
2020/12/08 06:06:19;;;;;;;26.95;15.88;;;;;;;2.43;74.17;98346.53;3868161;23;20061;-80
2020/12/08 06:07:53;;;;;;;25.67;14.95;;;;;;;2.42;74.25;98335.13;3867053;22;20020;-79
2020/12/08 06:09:26;;;;;;;25.42;14.02;;;;;;;2.35;74.56;98323.47;3871135;23;20024;-79
2020/12/08 06:10:57;;;;;;;30.35;18.05;;;;;;;2.33;74.56;98323.59;3866087;22;20036;-80
2020/12/08 06:12:32;;;;;;;26.55;14.60;;;;;;;2.24;74.84;98331.47;3868980;23;20020;-79
2020/12/08 06:14:04;;;;;;;28.42;15.60;;;;;;;2.26;74.60;98335.66;3865515;22;20044;-80
2020/12/08 06:15:41;;;;;;;24.25;13.52;;;;;;;2.29;74.88;98345.94;3859020;23;20035;-79
2020/12/08 06:17:14;;;;;;;24.30;12.43;;;;;;;2.41;74.50;98343.19;3858692;23;20338;-80
2020/12/08 06:18:46;;;;;;;23.90;14.50;;;;;;;2.35;74.42;98344.56;3854979;22;20028;-79
2020/12/08 06:20:17;;;;;;;24.10;13.50;;;;;;;2.31;74.63;98351.91;3859074;23;20021;-80
2020/12/08 06:21:48;;;;;;;;;;;;;;;2.22;75.04;98354.53;3852941;22;20017;-79
2020/12/08 06:23:20;;;;;;;26.63;13.45;;;;;;;2.27;74.74;98347.84;3857301;23;19972;-79
2020/12/08 06:24:52;;;;;;;23.30;13.15;;;;;;;2.29;74.53;98340.66;3855479;22;20027;-79
2020/12/08 06:26:26;;;;;;;24.60;13.63;;;;;;;2.32;74.61;98352.72;3857156;23;20543;-79
2020/12/08 06:28:00;;;;;;;23.67;13.15;;;;;;;2.37;74.42;98360.25;3856324;22;20028;-79
2020/12/08 06:29:32;;;;;;;20.63;10.75;;;;;;;2.42;74.49;98358.06;3857285;23;20024;-79
2020/12/08 06:31:05;;;;;;;19.42;10.57;;;;;;;2.53;74.43;98355.31;3857587;22;20020;-80
2020/12/08 06:32:37;;;;;;;23.73;12.35;;;;;;;2.63;74.07;98350.03;3858657;23;20025;-79
2020/12/08 06:34:08;;;;;;;22.23;13.13;;;;;;;2.63;73.96;98348.25;3855739;22;20021;-79
2020/12/08 06:35:40;;;;;;;20.98;11.45;;;;;;;2.65;73.90;98343.66;3857305;23;20027;-79
2020/12/08 06:37:10;;;;;;;20.02;10.75;;;;;;;2.72;73.73;98345.78;3853685;22;20025;-79
2020/12/08 06:38:42;;;;;;;;;;;;;;;2.61;73.93;98350.19;3859290;23;20031;-80
2020/12/08 06:40:14;;;;;;;17.33;8.95;;;;;;;2.77;73.67;98351.47;3854633;22;19915;-80
2020/12/08 06:41:46;;;;;;;16.88;9.38;;;;;;;2.83;73.59;98358.84;3858607;23;20032;-80
2020/12/08 06:43:17;;;;;;;19.70;10.50;;;;;;;2.88;73.29;98361.09;3856713;22;20036;-80
2020/12/08 06:44:50;;;;;;;20.45;10.27;;;;;;;2.87;73.23;98365.50;3858108;23;20028;-80
2020/12/08 06:46:23;;;;;;;15.05;8.43;;;;;;;2.90;73.13;98364.41;3855960;22;20052;-80
2020/12/08 06:47:54;;;;;;;16.13;7.82;;;;;;;2.93;73.03;98372.88;3857615;23;20054;-80
2020/12/08 06:49:27;;;;;;;17.42;9.85;;;;;;;2.99;72.88;98370.66;3856554;22;20016;-81
2020/12/08 06:51:00;;;;;;;19.77;11.13;;;;;;;2.96;72.96;98372.59;3856785;23;20020;-81
2020/12/08 06:52:31;;;;;;;19.70;11.68;;;;;;;2.92;72.82;98370.38;3855137;22;20361;-80
2020/12/08 06:54:12;;;;;;;18.95;10.75;;;;;;;2.93;72.99;98369.41;3857932;23;20626;-80
2020/12/08 06:55:45;;;;;;;31.20;13.98;;;;;;;2.86;73.05;98363.84;3853725;22;20104;-80
2020/12/08 06:57:22;;;;;;;23.45;13.57;;;;;;;2.81;73.03;98363.44;3858485;23;20300;-80
2020/12/08 06:58:53;;;;;;;24.10;13.82;;;;;;;2.72;73.36;98362.44;3855014;22;20607;-80
2020/12/08 07:00:26;;;;;;;26.30;15.30;;;;;;;2.67;73.41;98361.16;3857959;23;20036;-80
2020/12/08 07:01:58;;;;;;;26.10;15.73;;;;;;;2.57;73.62;98355.88;3854923;22;20035;-80
2020/12/08 07:03:29;;;;;;;26.33;14.98;;;;;;;2.54;73.91;98353.50;3857170;23;20445;-80
2020/12/08 07:05:00;;;;;;;30.05;16.50;;;;;;;2.56;73.67;98356.84;3855661;22;20020;-79
2020/12/08 07:06:33;;;;;;;;;;;;;;;2.46;73.91;98362.06;3857926;23;20051;-80
2020/12/08 07:08:06;;;;;;;30.88;17.45;;;;;;;2.44;73.86;98362.22;3855712;22;19916;-80
2020/12/08 07:09:38;;;;;;;24.83;14.82;;;;;;;2.37;73.91;98365.50;3861390;23;20013;-81
2020/12/08 07:11:17;;;;;;;27.25;15.40;;;;;;;2.38;73.74;98359.28;3855202;23;20032;-80
2020/12/08 07:12:49;;;;;;;27.80;15.57;;;;;;;2.39;73.88;98358.31;3850960;22;20533;-80
2020/12/08 07:14:27;;;;;;;23.67;13.55;;;;;;;2.40;74.07;98349.44;3856637;23;20032;-80
2020/12/08 07:15:59;;;;;;;27.15;15.15;;;;;;;2.39;74.01;98342.50;3854167;22;20032;-81
2020/12/08 07:17:30;;;;;;;23.38;12.80;;;;;;;2.39;74.16;98345.13;3854472;23;20417;-81